Terminal Aerodrome Forecast
Issued by NWS Blacksburg, VA

Home | Current Version | Previous Version | Text Only | Print | Product List | Glossary On
Versions: 1 2 3 4 5 6 7 8 9 10 11 12 13 14 15 16 17 18 19 20 21 22 23 24 25 26 27 28
000
FTUS41 KRNK 042336
TAFDAN
TAF
KDAN 042336Z 0500/0524 06003KT P6SM SCT035 BKN080
     FM050700 04004KT 5SM BR SCT009 BKN020
      TEMPO 0510/0512 BKN009
     FM051600 06006KT P6SM OVC040=

USA.gov is the U.S. government's official web portal to all federal, state and local government web resources and services.